Otterburn Park, Canada
Current Conditions -  °F | °C
As of 5:00 PM on Friday 24 Oct 2014 (Local Time) from CYHU Reporting Station
Overcast Overcast  
Wind Chill: 54°   Ceiling: 8500
Heat Index: 54°   Visibility: 9mi
Dew Point: 37°   Wind: 7mph
Humidity: 54%   Direction: 240°WSW
Pressure: 29.82"   Gusts: NA
Location:  45.53°N, 73.22°W
Report Text: CYHU 242100Z AUTO 24006KT 9SM SCT065 OVC085 12/03 A2982 RMK SLP100
Loading
Personal Weather Stations






























Interactive Weather Map
Tropical Storm Tracking
New forecast layout! Learn more

10-Day Weather Forecast

Advertisements
Track Severe Weather on mobile